Time;durP1;ratioP1;P1;durP2;ratioP2;P2;SDS_P1;SDS_P2;PMS_P1;PMS_P2;Temp;Humidity;BMP_temperature;BMP_pressure;BME280_temperature;BME280_humidity;BME280_pressure;Samples;Min_cycle;Max_cycle;Signal;HPM_P1;HPM_P2
2022/07/14 00:00:10;;;;;;;8.25;2.35;;;21.30;99.90;;;;;;5074376;28;20778;-84
2022/07/14 00:02:36;;;;;;;9.10;2.20;;;21.40;99.90;;;;;;5073558;28;20175;-84
2022/07/14 00:05:01;;;;;;;12.50;2.90;;;21.50;99.90;;;;;;5074450;28;20173;-83
2022/07/14 00:07:27;;;;;;;9.15;2.58;;;21.30;99.90;;;;;;5074806;28;20229;-81
2022/07/14 00:09:53;;;;;;;12.07;3.00;;;21.20;99.90;;;;;;5074371;28;20194;-82
2022/07/14 00:12:18;;;;;;;7.82;2.17;;;21.20;99.90;;;;;;5074378;28;20174;-82
2022/07/14 00:14:44;;;;;;;8.90;2.45;;;21.20;99.90;;;;;;5074575;28;20177;-83
2022/07/14 00:17:10;;;;;;;17.20;2.70;;;21.30;99.90;;;;;;5074175;28;20198;-81
2022/07/14 00:19:35;;;;;;;10.38;2.78;;;21.50;99.90;;;;;;5074152;28;20721;-84
2022/07/14 00:22:01;;;;;;;8.30;2.40;;;21.40;99.90;;;;;;5073636;28;20635;-80
2022/07/14 00:24:26;;;;;;;20.15;2.60;;;21.40;99.90;;;;;;5074056;28;20162;-82
2022/07/14 00:26:53;;;;;;;8.88;2.38;;;21.30;99.90;;;;;;5074033;28;20642;-82
2022/07/14 00:29:18;;;;;;;5.65;2.40;;;21.10;99.90;;;;;;5073750;28;20182;-82
2022/07/14 00:31:44;;;;;;;9.75;2.33;;;21.30;99.90;;;;;;5073938;28;20532;-82
2022/07/14 00:34:10;;;;;;;9.13;2.25;;;21.50;99.90;;;;;;5074151;28;20231;-82
2022/07/14 00:36:35;;;;;;;10.27;2.33;;;21.00;99.90;;;;;;5073873;28;20173;-85
2022/07/14 00:39:01;;;;;;;11.40;2.55;;;20.80;99.90;;;;;;5074146;28;20174;-84
2022/07/14 00:41:27;;;;;;;15.05;2.55;;;20.60;99.90;;;;;;5072471;28;20163;-81
2022/07/14 00:43:52;;;;;;;8.13;2.03;;;20.60;99.90;;;;;;5073697;28;20166;-82
2022/07/14 00:46:18;;;;;;;10.00;2.35;;;20.60;99.90;;;;;;5073651;28;20166;-83
2022/07/14 00:48:43;;;;;;;7.60;2.67;;;20.70;99.90;;;;;;5072281;28;20192;-80
2022/07/14 00:51:09;;;;;;;8.45;2.33;;;20.80;99.90;;;;;;5072179;28;20244;-80
2022/07/14 00:53:35;;;;;;;16.25;2.53;;;20.70;99.90;;;;;;5076996;28;20185;-80
2022/07/14 00:56:01;;;;;;;8.38;2.20;;;20.60;99.90;;;;;;5098011;28;20157;-80
2022/07/14 00:58:26;;;;;;;9.25;2.13;;;20.60;99.90;;;;;;5098217;28;20253;-82
2022/07/14 01:00:52;;;;;;;7.50;2.22;;;20.50;99.90;;;;;;5089124;28;20696;-79
2022/07/14 01:03:17;;;;;;;7.75;2.20;;;20.40;99.90;;;;;;5073248;28;20580;-82
2022/07/14 01:05:43;;;;;;;4.90;2.08;;;20.20;99.90;;;;;;5072990;28;20166;-81
2022/07/14 01:08:09;;;;;;;14.40;2.40;;;20.20;99.90;;;;;;5071256;28;20249;-80
2022/07/14 01:10:35;;;;;;;8.23;2.63;;;20.20;99.90;;;;;;5071650;28;20297;-80
2022/07/14 01:13:05;;;;;;;9.45;2.40;;;20.30;99.90;;;;;;5073044;28;20257;-80
2022/07/14 01:15:31;;;;;;;8.35;2.90;;;20.20;99.90;;;;;;5072930;28;20167;-83
2022/07/14 01:17:56;;;;;;;7.18;2.72;;;20.20;99.90;;;;;;5071703;28;20218;-81
2022/07/14 01:20:23;;;;;;;11.23;3.15;;;20.30;99.90;;;;;;5073324;28;20675;-82
2022/07/14 01:22:49;;;;;;;6.40;2.33;;;20.40;99.90;;;;;;5072701;28;20159;-81
2022/07/14 01:25:16;;;;;;;11.93;3.00;;;20.20;99.90;;;;;;5073036;28;20178;-82
2022/07/14 01:27:43;;;;;;;11.98;2.67;;;20.10;99.90;;;;;;5072611;28;20170;-81
2022/07/14 01:30:10;;;;;;;10.90;3.03;;;20.10;99.90;;;;;;5072495;28;20603;-80
2022/07/14 01:32:36;;;;;;;7.95;2.60;;;20.20;99.90;;;;;;5071297;28;20167;-83
2022/07/14 01:35:03;;;;;;;9.15;2.75;;;20.50;99.90;;;;;;5073116;28;20511;-83
2022/07/14 01:37:29;;;;;;;10.93;3.05;;;20.60;99.90;;;;;;5072189;28;20293;-81
2022/07/14 01:39:55;;;;;;;3.33;2.50;;;20.70;99.90;;;;;;5071653;28;20328;-81
2022/07/14 01:42:20;;;;;;;8.95;2.42;;;20.70;99.90;;;;;;5071993;28;20542;-83
2022/07/14 01:44:46;;;;;;;8.60;3.05;;;20.40;99.90;;;;;;5072701;28;20224;-82
2022/07/14 01:47:13;;;;;;;17.10;3.00;;;20.40;99.90;;;;;;5071085;28;20166;-80
2022/07/14 01:49:39;;;;;;;10.23;3.33;;;20.20;99.90;;;;;;5071227;28;20283;-81
2022/07/14 01:52:05;;;;;;;8.88;2.50;;;20.00;99.90;;;;;;5071323;28;20174;-80
2022/07/14 01:54:30;;;;;;;9.43;2.63;;;20.10;99.90;;;;;;5072586;28;20166;-80
2022/07/14 01:56:56;;;;;;;9.45;2.70;;;20.00;99.90;;;;;;5072632;28;20550;-80
2022/07/14 01:59:22;;;;;;;7.50;3.13;;;20.00;99.90;;;;;;5072068;28;20201;-80
2022/07/14 02:01:48;;;;;;;11.63;3.03;;;20.00;99.90;;;;;;5072388;28;20236;-79
2022/07/14 02:04:15;;;;;;;8.02;2.92;;;19.90;99.90;;;;;;5072103;28;20203;-80
2022/07/14 02:06:45;;;;;;;11.05;3.47;;;19.60;99.90;;;;;;5071734;28;20220;-81
2022/07/14 02:09:11;;;;;;;20.23;3.97;;;19.50;99.90;;;;;;5074531;28;20532;-79
2022/07/14 02:14:21;;;;;;;12.35;3.55;;;19.10;99.90;;;;;;5075926;28;20316;-78
2022/07/14 02:16:47;;;;;;;14.90;4.05;;;19.20;99.90;;;;;;5079243;28;20222;-79
2022/07/14 02:19:13;;;;;;;11.02;3.30;;;19.20;99.90;;;;;;5085293;28;20259;-80
2022/07/14 02:21:40;;;;;;;11.48;3.42;;;19.10;99.90;;;;;;5085481;28;20170;-80
2022/07/14 02:24:09;;;;;;;16.92;3.63;;;19.10;99.90;;;;;;5087751;28;20167;-81
2022/07/14 02:26:36;;;;;;;14.88;3.72;;;19.30;99.90;;;;;;5097117;28;20168;-81
2022/07/14 02:29:04;;;;;;;7.05;2.97;;;19.10;99.90;;;;;;5096994;28;20162;-81
2022/07/14 02:31:31;;;;;;;16.08;4.00;;;18.90;99.90;;;;;;5096146;28;20154;-81
2022/07/14 02:33:57;;;;;;;17.08;4.75;;;18.70;99.90;;;;;;5096714;28;20151;-80
2022/07/14 02:36:23;;;;;;;12.10;4.43;;;18.50;99.90;;;;;;5097314;28;20196;-80
2022/07/14 02:38:49;;;;;;;11.65;4.60;;;18.50;99.90;;;;;;5096241;28;20206;-81
2022/07/14 02:41:15;;;;;;;6.85;3.33;;;18.70;99.90;;;;;;5076242;28;20191;-83
2022/07/14 02:43:41;;;;;;;20.27;4.22;;;18.90;99.90;;;;;;5072838;28;20615;-82
2022/07/14 02:46:06;;;;;;;13.07;3.97;;;19.00;99.90;;;;;;5076032;28;20162;-81
2022/07/14 02:48:32;;;;;;;15.48;4.10;;;19.10;99.90;;;;;;5075879;28;20162;-81
2022/07/14 02:51:00;;;;;;;5.38;3.22;;;19.00;99.90;;;;;;5075856;28;20622;-80
2022/07/14 02:53:26;;;;;;;12.07;3.80;;;19.20;99.90;;;;;;5075772;28;20299;-80
2022/07/14 02:55:51;;;;;;;7.03;4.10;;;19.40;99.90;;;;;;5075817;28;20215;-81
2022/07/14 02:58:18;;;;;;;12.52;3.97;;;19.40;99.90;;;;;;5075440;28;20210;-81
2022/07/14 03:00:43;;;;;;;9.43;3.47;;;19.40;99.90;;;;;;5075440;28;20263;-80
2022/07/14 03:03:09;;;;;;;17.58;4.18;;;19.40;99.90;;;;;;5074154;28;20205;-80
2022/07/14 03:05:35;;;;;;;10.00;3.75;;;19.50;99.90;;;;;;5075485;28;20178;-79
2022/07/14 03:08:00;;;;;;;7.05;3.97;;;19.30;99.90;;;;;;5075516;28;20635;-81
2022/07/14 03:10:26;;;;;;;10.40;4.53;;;19.40;99.90;;;;;;5075693;28;20178;-82
2022/07/14 03:12:53;;;;;;;6.72;4.50;;;19.50;99.90;;;;;;5075607;28;20170;-81
2022/07/14 03:15:19;;;;;;;10.02;4.68;;;19.40;99.90;;;;;;5075375;28;20172;-84
2022/07/14 03:17:44;;;;;;;20.92;4.10;;;19.20;99.90;;;;;;5074010;28;20217;-79
2022/07/14 03:20:12;;;;;;;13.70;4.07;;;19.10;99.90;;;;;;5075316;28;20219;-81
2022/07/14 03:22:38;;;;;;;6.07;3.53;;;19.10;99.90;;;;;;5094411;28;20193;-80
2022/07/14 03:25:05;;;;;;;8.77;3.85;;;19.00;99.90;;;;;;5098595;28;20151;-80
2022/07/14 03:27:31;;;;;;;10.20;4.70;;;19.10;99.90;;;;;;5099990;28;20230;-80
2022/07/14 03:29:57;;;;;;;6.55;3.88;;;19.20;99.90;;;;;;5097557;28;20189;-81
2022/07/14 03:32:22;;;;;;;9.80;4.28;;;19.20;99.90;;;;;;5074911;28;20718;-80
2022/07/14 03:34:48;;;;;;;22.30;4.50;;;19.40;99.90;;;;;;5075783;28;20180;-81
2022/07/14 03:37:15;;;;;;;15.38;4.32;;;19.10;99.90;;;;;;5074814;28;20198;-82
2022/07/14 03:39:40;;;;;;;12.77;4.22;;;19.10;99.90;;;;;;5074763;28;20608;-82
2022/07/14 03:42:06;;;;;;;11.15;4.53;;;19.20;99.90;;;;;;5074928;28;20158;-82
2022/07/14 03:44:32;;;;;;;18.88;4.10;;;19.20;99.90;;;;;;5074603;28;20586;-81
2022/07/14 03:46:57;;;;;;;9.45;4.28;;;19.00;99.90;;;;;;5074864;28;20255;-82
2022/07/14 03:49:23;;;;;;;16.98;4.63;;;18.90;99.90;;;;;;5074871;28;20281;-82
2022/07/14 03:51:49;;;;;;;9.15;4.30;;;18.90;99.90;;;;;;5075336;28;20237;-80
2022/07/14 03:54:15;;;;;;;13.73;4.20;;;18.70;99.90;;;;;;5074832;28;20258;-82
2022/07/14 03:56:41;;;;;;;8.77;4.45;;;18.80;99.90;;;;;;5072882;28;20181;-82
2022/07/14 03:59:06;;;;;;;9.57;4.22;;;18.90;99.90;;;;;;5074677;28;20178;-81
2022/07/14 04:01:32;;;;;;;10.02;4.05;;;19.00;99.90;;;;;;5073691;28;20214;-83
2022/07/14 04:03:58;;;;;;;18.02;4.30;;;19.20;99.90;;;;;;5074737;28;20224;-84
2022/07/14 04:06:24;;;;;;;10.35;3.45;;;19.30;99.90;;;;;;5075129;28;20224;-85
2022/07/14 04:08:49;;;;;;;14.90;3.85;;;19.40;99.90;;;;;;5076348;28;20249;-83
2022/07/14 04:11:15;;;;;;;10.65;3.75;;;19.60;99.90;;;;;;5074681;28;20289;-81
2022/07/14 04:13:41;;;;;;;12.50;5.28;;;19.50;99.90;;;;;;5074779;28;20186;-85
2022/07/14 04:16:07;;;;;;;11.32;3.50;;;19.50;99.90;;;;;;5074302;28;20198;-84
2022/07/14 04:18:32;;;;;;;18.60;4.50;;;19.30;99.90;;;;;;5072855;28;20209;-82
2022/07/14 04:20:58;;;;;;;16.83;3.53;;;19.20;99.90;;;;;;5073924;28;20677;-83
2022/07/14 04:23:24;;;;;;;11.02;3.35;;;19.20;99.90;;;;;;5073878;28;20297;-83
2022/07/14 04:25:50;;;;;;;11.13;3.35;;;19.00;99.90;;;;;;5074012;28;20207;-82
2022/07/14 04:28:16;;;;;;;18.13;3.95;;;18.90;99.90;;;;;;5073729;28;20166;-81
2022/07/14 04:30:42;;;;;;;12.93;3.72;;;19.00;99.90;;;;;;5073799;28;20206;-82
2022/07/14 04:33:10;;;;;;;9.82;3.47;;;19.20;99.90;;;;;;5089695;28;20175;-80
2022/07/14 04:35:37;;;;;;;11.18;3.15;;;19.20;99.90;;;;;;5090499;28;20177;-81
2022/07/14 04:38:04;;;;;;;10.85;3.38;;;19.10;99.90;;;;;;5082099;28;20206;-80
2022/07/14 04:40:30;;;;;;;6.95;3.40;;;18.90;99.90;;;;;;5063357;28;20190;-79
2022/07/14 04:42:55;;;;;;;17.38;4.03;;;18.70;99.90;;;;;;5089286;28;20719;-81
2022/07/14 04:45:22;;;;;;;9.63;4.13;;;18.60;99.90;;;;;;5075162;28;20158;-83
2022/07/14 04:47:50;;;;;;;13.25;4.25;;;18.70;99.90;;;;;;5078032;28;20231;-79
2022/07/14 04:53:04;;;;;;;11.95;4.03;;;18.90;99.90;;;;;;5066672;28;20231;-80
2022/07/14 04:55:35;;;;;;;7.80;4.05;;;19.00;99.90;;;;;;5075097;28;20183;-79
2022/07/14 04:58:01;;;;;;;12.52;4.05;;;19.20;99.90;;;;;;5079386;28;20520;-81
2022/07/14 05:00:49;;;;;;;16.40;4.22;;;19.40;99.90;;;;;;5076107;28;20185;-79
2022/07/14 05:03:15;;;;;;;5.70;4.15;;;19.30;99.90;;;;;;5084320;28;20203;-82
2022/07/14 05:05:52;;;;;;;13.35;4.47;;;19.30;99.90;;;;;;5083682;28;20207;-80
2022/07/14 05:08:18;;;;;;;12.45;4.25;;;19.40;99.90;;;;;;5083455;28;20186;-80
2022/07/14 05:10:43;;;;;;;16.08;4.63;;;19.20;99.90;;;;;;5074493;28;20183;-80
2022/07/14 05:13:09;;;;;;;9.48;3.25;;;19.10;99.90;;;;;;5072680;28;20162;-82
2022/07/14 05:15:35;;;;;;;9.20;3.30;;;19.20;99.90;;;;;;5072961;28;20166;-81
2022/07/14 05:18:00;;;;;;;14.57;4.05;;;19.20;99.90;;;;;;5073455;28;20285;-83
2022/07/14 05:20:26;;;;;;;11.70;3.70;;;19.30;99.90;;;;;;5073739;28;20213;-83
2022/07/14 05:22:52;;;;;;;11.63;4.38;;;19.50;99.90;;;;;;5072746;28;20182;-80
2022/07/14 05:25:17;;;;;;;16.65;4.00;;;19.30;99.90;;;;;;5073649;28;20167;-82
2022/07/14 05:27:44;;;;;;;18.38;4.15;;;19.20;99.90;;;;;;5073822;28;20167;-82
2022/07/14 05:30:10;;;;;;;7.10;3.92;;;19.30;99.90;;;;;;5072122;28;20562;-83
2022/07/14 05:32:37;;;;;;;17.08;3.92;;;19.30;99.90;;;;;;5073173;28;20169;-82
2022/07/14 05:35:05;;;;;;;7.65;3.65;;;19.30;99.90;;;;;;5072028;28;20178;-83
2022/07/14 05:37:30;;;;;;;26.05;5.25;;;19.30;99.90;;;;;;5073068;28;20682;-80
2022/07/14 05:39:56;;;;;;;20.55;5.05;;;19.40;99.90;;;;;;5072973;28;20278;-82
2022/07/14 05:42:22;;;;;;;10.07;4.15;;;19.40;99.90;;;;;;5073039;28;20173;-82
2022/07/14 05:44:49;;;;;;;13.98;3.80;;;19.20;99.90;;;;;;5073346;28;20182;-81
2022/07/14 05:47:15;;;;;;;10.68;4.88;;;19.30;99.90;;;;;;5073097;28;20638;-81
2022/07/14 05:49:41;;;;;;;14.85;5.07;;;19.50;99.90;;;;;;5072189;28;20194;-82
2022/07/14 05:52:11;;;;;;;6.03;4.53;;;19.40;99.90;;;;;;5086600;28;20171;-82
2022/07/14 05:54:37;;;;;;;12.43;5.20;;;19.20;99.90;;;;;;5093781;28;20154;-83
2022/07/14 05:57:03;;;;;;;19.85;4.85;;;19.00;99.90;;;;;;5077036;28;20206;-82
2022/07/14 05:59:29;;;;;;;21.73;4.88;;;19.10;99.90;;;;;;5075453;28;20194;-84
2022/07/14 06:01:54;;;;;;;9.65;4.80;;;19.20;99.90;;;;;;5075139;28;20646;-83
2022/07/14 06:04:20;;;;;;;12.38;4.10;;;19.50;99.90;;;;;;5077144;28;20584;-82
2022/07/14 06:06:46;;;;;;;12.43;4.47;;;19.70;99.90;;;;;;5076471;28;20178;-82
2022/07/14 06:09:14;;;;;;;17.13;4.47;;;19.80;99.90;;;;;;5076252;28;20174;-85
2022/07/14 06:11:41;;;;;;;13.07;4.05;;;19.90;99.90;;;;;;5075189;28;20631;-85
2022/07/14 06:14:07;;;;;;;23.30;4.78;;;20.10;99.90;;;;;;5076757;28;20635;-82
2022/07/14 06:16:34;;;;;;;15.48;4.82;;;20.20;99.90;;;;;;5077363;28;20166;-86
2022/07/14 06:19:00;;;;;;;8.55;3.45;;;20.20;99.90;;;;;;5075919;28;20178;-84
2022/07/14 06:21:27;;;;;;;10.02;4.47;;;20.00;99.90;;;;;;5078073;28;20554;-84
2022/07/14 06:23:52;;;;;;;11.52;3.67;;;20.00;99.90;;;;;;5076521;28;20163;-85
2022/07/14 06:26:18;;;;;;;14.45;3.67;;;20.20;99.90;;;;;;5077128;28;20220;-88
2022/07/14 06:28:43;;;;;;;13.23;3.70;;;20.30;99.90;;;;;;5076691;28;20174;-88
2022/07/14 06:31:09;;;;;;;10.50;3.08;;;20.70;99.90;;;;;;5076558;28;20201;-87
2022/07/14 06:33:35;;;;;;;14.55;3.67;;;20.90;99.90;;;;;;5076705;28;20166;-88
2022/07/14 06:36:01;;;;;;;7.75;3.53;;;21.20;99.90;;;;;;5077162;28;20181;-87
2022/07/14 06:40:55;;;;;;;16.35;3.78;;;21.00;99.90;;;;;;5036516;28;20227;-87
2022/07/14 06:43:22;;;;;;;16.90;3.65;;;20.60;99.90;;;;;;5038193;28;20164;-89
2022/07/14 06:45:47;;;;;;;9.10;2.97;;;20.40;99.90;;;;;;5019752;28;20171;-85
2022/07/14 06:48:13;;;;;;;10.07;3.17;;;20.40;99.90;;;;;;5020548;28;20195;-87
2022/07/14 06:50:39;;;;;;;17.45;4.25;;;20.50;99.90;;;;;;5037403;28;20194;-87
2022/07/14 06:53:04;;;;;;;12.70;3.45;;;20.70;99.90;;;;;;5037260;28;20247;-86
2022/07/14 06:55:31;;;;;;;11.63;3.22;;;20.90;99.90;;;;;;5019975;28;20606;-86
2022/07/14 06:57:57;;;;;;;9.65;3.08;;;20.80;99.90;;;;;;5019672;28;20207;-85
2022/07/14 07:00:22;;;;;;;11.95;3.42;;;21.30;99.90;;;;;;5019707;28;20191;-85
2022/07/14 07:02:48;;;;;;;17.42;3.95;;;21.50;99.90;;;;;;5019227;28;20179;-89
2022/07/14 07:08:00;;;;;;;7.35;3.08;;;21.90;99.90;;;;;;5038160;28;20202;-90
2022/07/14 07:10:26;;;;;;;8.88;3.78;;;22.20;99.90;;;;;;5020735;28;20195;-90
2022/07/14 07:12:52;;;;;;;18.02;3.70;;;22.40;99.90;;;;;;5019563;28;20172;-88
2022/07/14 07:15:18;;;;;;;14.18;4.00;;;22.40;99.90;;;;;;5019312;28;20164;-89
2022/07/14 07:17:43;;;;;;;10.60;4.10;;;22.30;99.90;;;;;;5019560;28;20262;-82
2022/07/14 07:20:12;;;;;;;13.45;3.08;;;22.50;99.90;;;;;;5017949;28;20242;-83
2022/07/14 07:22:38;;;;;;;10.07;2.47;;;22.60;99.90;;;;;;5017910;28;20512;-83
2022/07/14 07:25:05;;;;;;;7.55;2.45;;;22.90;99.90;;;;;;5018143;28;20206;-88
2022/07/14 07:27:31;;;;;;;10.95;1.95;;;23.90;99.90;;;;;;5019362;28;20202;-88
2022/07/14 07:30:01;;;;;;;6.72;1.73;;;24.10;99.90;;;;;;5018686;28;20698;-88
2022/07/14 07:32:28;;;;;;;12.98;2.38;;;24.00;99.90;;;;;;5019256;28;20176;-88
2022/07/14 07:34:54;;;;;;;5.88;2.85;;;24.00;99.90;;;;;;5018861;28;20168;-89
2022/07/14 07:37:20;;;;;;;6.70;2.40;;;23.90;99.90;;;;;;5019290;28;20212;-89
2022/07/14 07:39:46;;;;;;;7.65;2.53;;;24.20;99.90;;;;;;5019382;28;20227;-89
2022/07/14 07:42:11;;;;;;;18.58;2.70;;;24.80;99.90;;;;;;5019623;28;20188;-90
2022/07/14 07:44:37;;;;;;;10.73;2.95;;;25.20;99.90;;;;;;5019257;28;20164;-90
2022/07/14 07:47:03;;;;;;;6.05;1.98;;;25.40;99.90;;;;;;5020818;28;20183;-89
2022/07/14 07:49:29;;;;;;;13.38;3.15;;;25.10;99.90;;;;;;5025743;28;20192;-87
2022/07/14 07:51:59;;;;;;;14.95;2.47;;;24.90;99.90;;;;;;5027115;28;20297;-92
2022/07/14 07:54:26;;;;;;;10.88;2.60;;;24.90;99.90;;;;;;5015989;28;20251;-87
2022/07/14 07:56:52;;;;;;;13.60;2.58;;;24.90;99.90;;;;;;5028797;28;20178;-85
2022/07/14 07:59:18;;;;;;;4.38;1.85;;;24.10;99.90;;;;;;5054691;28;20266;-87
2022/07/14 08:01:44;;;;;;;11.55;2.75;;;23.70;99.90;;;;;;5037398;28;20167;-86
2022/07/14 08:04:09;;;;;;;7.07;2.22;;;23.70;99.90;;;;;;5037534;28;20182;-85
2022/07/14 08:06:37;;;;;;;4.93;2.42;;;23.40;99.90;;;;;;5020693;28;20176;-84
2022/07/14 08:09:03;;;;;;;10.27;2.22;;;23.20;99.90;;;;;;5017089;28;20172;-83
2022/07/14 08:11:29;;;;;;;5.40;2.25;;;23.40;99.90;;;;;;5034831;28;20164;-85
2022/07/14 08:13:55;;;;;;;8.63;2.22;;;23.10;99.90;;;;;;5035034;28;20647;-83
2022/07/14 08:16:22;;;;;;;6.35;2.20;;;23.40;99.90;;;;;;5035385;28;20179;-88
2022/07/14 08:18:49;;;;;;;7.90;2.22;;;23.40;99.90;;;;;;5037037;28;20204;-85
2022/07/14 08:21:15;;;;;;;11.55;2.70;;;23.40;99.90;;;;;;5022358;28;20180;-86
2022/07/14 08:23:40;;;;;;;10.25;2.65;;;23.60;99.90;;;;;;5038589;28;20174;-84
2022/07/14 08:26:06;;;;;;;11.80;2.40;;;23.60;99.90;;;;;;5040647;28;20223;-84
2022/07/14 08:28:32;;;;;;;14.43;2.65;;;23.60;99.90;;;;;;5029968;28;20195;-88
2022/07/14 08:30:57;;;;;;;8.07;1.70;;;23.60;99.90;;;;;;5017122;28;20190;-90
2022/07/14 08:33:23;;;;;;;10.32;1.83;;;23.30;99.90;;;;;;5035968;28;20187;-94
2022/07/14 08:35:48;;;;;;;7.50;1.63;;;23.40;99.90;;;;;;5018724;28;20318;-88
2022/07/14 08:38:14;;;;;;;9.85;2.03;;;23.40;99.90;;;;;;5035104;28;20210;-86
2022/07/14 08:40:40;;;;;;;7.93;2.05;;;23.30;99.90;;;;;;5035335;28;20211;-82
2022/07/14 08:43:06;;;;;;;9.00;1.92;;;23.40;99.90;;;;;;5034687;28;20606;-84
2022/07/14 08:45:41;;;;;;;8.43;1.73;;;23.60;99.90;;;;;;5035033;28;20175;-87
2022/07/14 08:48:08;;;;;;;6.88;2.17;;;23.70;99.90;;;;;;5017569;28;20535;-87
2022/07/14 08:50:34;;;;;;;6.93;2.35;;;23.70;99.90;;;;;;5022217;28;20192;-87
2022/07/14 08:53:03;;;;;;;5.50;1.83;;;23.80;99.90;;;;;;5024271;28;20207;-87
2022/07/14 08:55:30;;;;;;;8.13;2.70;;;24.10;99.90;;;;;;5019922;28;20199;-88
2022/07/14 08:57:55;;;;;;;9.00;1.70;;;24.40;99.90;;;;;;5036333;28;20207;-87
2022/07/14 09:00:21;;;;;;;5.60;1.63;;;25.00;99.90;;;;;;5021942;28;20199;-83
2022/07/14 09:02:49;;;;;;;6.47;1.55;;;25.10;99.90;;;;;;5037465;28;20183;-85
2022/07/14 09:05:15;;;;;;;36.20;4.47;;;24.40;99.90;;;;;;5017074;28;20175;-80
2022/07/14 09:07:41;;;;;;;8.18;2.20;;;24.50;99.90;;;;;;5033734;28;20519;-81
2022/07/14 09:10:09;;;;;;;4.80;1.75;;;24.50;99.90;;;;;;5033490;28;20196;-81
2022/07/14 09:12:35;;;;;;;10.90;1.83;;;24.60;99.90;;;;;;5015957;28;20174;-84
2022/07/14 09:17:55;;;;;;;18.33;2.45;;;24.40;99.90;;;;;;5034497;28;20569;-80
2022/07/14 09:20:23;;;;;;;14.50;2.47;;;24.50;99.90;;;;;;5032097;28;20207;-82
2022/07/14 09:22:56;;;;;;;11.75;2.40;;;24.50;99.90;;;;;;5043704;28;20140;-84
2022/07/14 09:25:23;;;;;;;8.25;2.30;;;24.50;99.90;;;;;;5029398;28;20173;-86
2022/07/14 09:27:49;;;;;;;6.57;1.10;;;24.60;99.90;;;;;;5010344;28;20176;-83
2022/07/14 09:30:16;;;;;;;4.00;1.38;;;24.50;99.90;;;;;;5030750;28;20179;-85
2022/07/14 09:32:52;;;;;;;7.90;2.03;;;24.10;99.90;;;;;;5051694;28;20156;-83
2022/07/14 09:35:22;;;;;;;19.55;3.20;;;24.40;99.90;;;;;;5032459;28;20194;-86
2022/07/14 09:37:49;;;;;;;22.33;3.70;;;24.50;99.90;;;;;;5034125;28;20253;-85
2022/07/14 09:40:25;;;;;;;12.82;1.90;;;24.60;99.90;;;;;;5018893;28;20302;-84
2022/07/14 09:42:59;;;;;;;6.95;2.05;;;24.70;99.90;;;;;;5017918;28;20171;-86
2022/07/14 09:45:27;;;;;;;8.10;1.83;;;24.80;99.90;;;;;;5015120;28;20180;-85
2022/07/14 09:48:15;;;;;;;6.25;1.20;;;24.70;99.90;;;;;;5016265;28;20172;-85
2022/07/14 09:50:54;;;;;;;4.43;1.80;;;24.70;99.90;;;;;;5013737;28;20196;-86
2022/07/14 09:53:20;;;;;;;8.73;1.60;;;24.60;99.90;;;;;;5015637;28;20167;-85
2022/07/14 09:56:02;;;;;;;7.22;1.70;;;24.50;99.90;;;;;;5013699;28;20172;-86
2022/07/14 09:58:29;;;;;;;6.70;2.13;;;24.30;99.90;;;;;;5000069;28;20226;-83
2022/07/14 10:00:59;;;;;;;6.57;1.58;;;24.50;99.90;;;;;;5015499;28;20187;-87
2022/07/14 10:03:27;;;;;;;6.32;1.50;;;24.70;99.90;;;;;;5032930;28;20171;-86
2022/07/14 10:05:55;;;;;;;6.47;2.33;;;25.00;99.90;;;;;;5034314;28;20243;-84
2022/07/14 10:08:29;;;;;;;3.85;1.63;;;25.10;99.90;;;;;;5015775;28;21507;-85
2022/07/14 10:10:57;;;;;;;10.30;2.33;;;25.10;99.90;;;;;;5033870;28;20196;-89
2022/07/14 10:13:24;;;;;;;6.78;1.83;;;25.20;99.90;;;;;;5015928;28;20160;-85
2022/07/14 10:15:52;;;;;;;8.18;1.63;;;25.20;99.90;;;;;;5015257;28;20179;-88
2022/07/14 10:18:18;;;;;;;8.40;1.85;;;25.40;99.90;;;;;;5015490;28;20212;-87
2022/07/14 10:20:50;;;;;;;3.85;1.75;;;25.40;99.90;;;;;;5015433;28;20202;-86
2022/07/14 10:23:17;;;;;;;3.90;1.23;;;25.70;99.90;;;;;;4998619;28;20183;-85
2022/07/14 10:25:48;;;;;;;7.40;1.00;;;25.40;99.90;;;;;;5032930;28;20175;-85
2022/07/14 10:28:18;;;;;;;8.85;1.77;;;25.30;99.90;;;;;;5014800;28;20186;-87
2022/07/14 10:31:06;;;;;;;4.65;1.67;;;25.40;99.90;;;;;;5033633;28;20197;-85
2022/07/14 10:33:53;;;;;;;9.82;1.83;;;25.00;99.90;;;;;;5014788;28;20267;-83
2022/07/14 10:36:31;;;;;;;4.70;1.67;;;24.80;99.90;;;;;;5014905;28;20172;-84
2022/07/14 10:39:16;;;;;;;4.82;1.45;;;24.90;99.90;;;;;;5015016;28;20218;-85
2022/07/14 10:42:16;;;;;;;8.05;1.85;;;25.00;99.90;;;;;;5032429;28;20184;-87
2022/07/14 10:44:46;;;;;;;3.38;1.40;;;25.30;99.90;;;;;;5015327;28;20195;-84
2022/07/14 10:47:14;;;;;;;4.13;1.58;;;25.50;99.90;;;;;;5015384;28;20226;-86
2022/07/14 10:50:04;;;;;;;4.93;1.30;;;25.70;99.90;;;;;;5032849;28;20194;-86
2022/07/14 10:52:33;;;;;;;3.42;1.30;;;26.00;99.90;;;;;;5015816;28;20176;-87
2022/07/14 10:55:16;;;;;;;12.05;1.30;;;26.10;99.90;;;;;;5015551;28;20183;-87
2022/07/14 10:58:00;;;;;;;6.93;1.17;;;26.30;99.90;;;;;;5026576;28;20239;-82
2022/07/14 11:00:41;;;;;;;9.05;1.30;;;26.50;99.90;;;;;;5056255;28;20186;-83
2022/07/14 11:03:26;;;;;;;3.25;0.90;;;26.50;99.90;;;;;;5038522;28;20251;-87
2022/07/14 11:06:05;;;;;;;7.70;1.85;;;26.10;99.90;;;;;;5018649;28;20168;-87
2022/07/14 11:08:31;;;;;;;6.10;1.20;;;26.30;99.90;;;;;;5020308;28;20191;-85
2022/07/14 11:10:59;;;;;;;6.22;1.23;;;25.90;99.90;;;;;;5018948;28;20188;-84
2022/07/14 11:13:25;;;;;;;6.57;1.02;;;26.30;99.90;;;;;;5019588;28;20183;-86
2022/07/14 11:15:52;;;;;;;15.23;1.50;;;26.40;99.90;;;;;;5018421;28;20644;-84
2022/07/14 11:18:18;;;;;;;3.80;1.25;;;26.50;99.90;;;;;;5018473;28;20222;-86
2022/07/14 11:21:07;;;;;;;11.15;1.38;;;26.40;99.90;;;;;;5018267;28;20184;-85
2022/07/14 11:23:52;;;;;;;7.97;1.13;;;26.80;99.90;;;;;;5035899;28;20267;-85
2022/07/14 11:26:41;;;;;;;6.15;1.42;;;27.10;99.90;;;;;;5018342;28;20187;-86
2022/07/14 11:29:11;;;;;;;4.38;1.08;;;26.90;98.10;;;;;;5018067;28;20187;-85
2022/07/14 11:31:47;;;;;;;6.15;0.93;;;26.60;98.80;;;;;;5035577;28;20612;-85
2022/07/14 11:37:13;;;;;;;3.42;1.10;;;26.50;97.90;;;;;;5038152;28;20211;-84
2022/07/14 11:39:40;;;;;;;16.88;1.20;;;26.10;99.00;;;;;;5020021;28;20269;-86
2022/07/14 11:42:07;;;;;;;1.48;1.00;;;26.50;98.80;;;;;;5022768;28;20182;-85
2022/07/14 11:44:35;;;;;;;6.13;1.08;;;26.60;97.40;;;;;;5022092;28;20179;-83
2022/07/14 11:47:04;;;;;;;4.65;1.30;;;26.70;97.70;;;;;;5039924;28;20176;-84
2022/07/14 11:49:31;;;;;;;8.05;1.20;;;26.80;98.00;;;;;;5019934;28;20187;-84
2022/07/14 11:52:00;;;;;;;7.03;1.40;;;27.00;97.30;;;;;;5037294;28;20660;-84
2022/07/14 11:54:28;;;;;;;6.57;1.30;;;27.20;98.80;;;;;;5019774;28;20540;-85
2022/07/14 11:57:11;;;;;;;5.13;1.10;;;27.20;98.40;;;;;;5024934;28;20172;-85
2022/07/14 11:59:42;;;;;;;14.85;1.33;;;27.20;98.30;;;;;;5022864;28;20172;-87
2022/07/14 12:02:15;;;;;;;6.70;1.38;;;27.20;98.70;;;;;;5018722;28;20172;-88
2022/07/14 12:04:48;;;;;;;4.28;1.52;;;27.20;98.80;;;;;;5018964;28;20183;-89
2022/07/14 12:07:13;;;;;;;17.92;1.75;;;26.90;99.80;;;;;;5018793;28;20179;-89
2022/07/14 12:09:40;;;;;;;12.02;1.63;;;27.20;99.40;;;;;;5019058;28;20187;-88
2022/07/14 12:12:06;;;;;;;6.22;1.38;;;27.00;99.90;;;;;;5038698;28;20178;-88
2022/07/14 12:14:33;;;;;;;2.30;1.40;;;27.40;99.90;;;;;;5036672;28;20229;-88
2022/07/14 12:16:59;;;;;;;4.40;1.35;;;27.20;99.30;;;;;;5036145;28;20184;-87
2022/07/14 12:19:31;;;;;;;4.53;1.45;;;27.10;99.00;;;;;;5017901;28;20211;-89
2022/07/14 12:22:03;;;;;;;3.67;1.20;;;27.00;98.60;;;;;;5019781;28;20628;-86
2022/07/14 12:24:29;;;;;;;11.05;1.40;;;27.10;98.60;;;;;;5019000;28;20262;-89
2022/07/14 12:26:59;;;;;;;4.97;1.48;;;26.90;98.60;;;;;;5036090;28;20163;-88
2022/07/14 12:29:26;;;;;;;7.00;1.30;;;27.10;98.40;;;;;;5035706;28;20183;-87
2022/07/14 12:31:52;;;;;;;6.90;1.45;;;27.30;97.50;;;;;;5035329;28;20156;-88
2022/07/14 12:34:18;;;;;;;6.10;1.10;;;27.50;96.10;;;;;;5001011;28;20180;-87
2022/07/14 12:36:45;;;;;;;6.78;1.25;;;27.40;95.40;;;;;;5035790;28;20672;-87
2022/07/14 12:39:13;;;;;;;3.80;1.10;;;27.10;95.40;;;;;;5041972;28;20215;-84
2022/07/14 12:41:40;;;;;;;7.07;1.10;;;26.80;96.20;;;;;;5037584;28;20539;-86
2022/07/14 12:44:11;;;;;;;9.32;1.00;;;26.90;95.40;;;;;;5022055;28;20182;-87
2022/07/14 12:46:42;;;;;;;5.47;1.48;;;26.90;95.70;;;;;;5021628;28;20188;-88
2022/07/14 12:49:09;;;;;;;5.55;1.02;;;26.80;95.90;;;;;;5035190;28;20180;-86
2022/07/14 12:51:40;;;;;;;11.77;1.55;;;26.80;95.70;;;;;;5031386;28;20189;-85
2022/07/14 12:54:21;;;;;;;5.18;1.10;;;26.80;96.10;;;;;;5041861;28;20214;-83
2022/07/14 12:56:52;;;;;;;5.05;1.42;;;26.80;96.20;;;;;;5042097;28;20160;-85
2022/07/14 12:59:29;;;;;;;13.48;1.70;;;26.70;96.30;;;;;;5039385;28;20250;-83
2022/07/14 13:02:09;;;;;;;6.43;1.52;;;26.40;97.20;;;;;;5025753;28;20187;-84